createdAt,value
2022-07-26T00:02:05.419Z,114.65
2022-07-26T00:04:33.808Z,93.55
2022-07-26T00:07:02.221Z,91.45
2022-07-26T00:09:30.538Z,84.20
2022-07-26T00:11:58.848Z,94.22
2022-07-26T00:14:29.388Z,80.70
2022-07-26T00:16:58.015Z,96.43
2022-07-26T00:19:26.216Z,92.03
2022-07-26T00:21:54.477Z,94.18
2022-07-26T00:24:22.870Z,94.55
2022-07-26T00:26:51.135Z,86.75
2022-07-26T00:29:19.479Z,92.85
2022-07-26T00:31:47.791Z,91.93
2022-07-26T00:34:16.290Z,84.70
2022-07-26T00:36:45.204Z,96.55
2022-07-26T00:39:13.440Z,89.35
2022-07-26T00:41:41.748Z,85.20
2022-07-26T00:44:10.042Z,82.07
2022-07-26T00:46:38.302Z,73.88
2022-07-26T00:49:06.934Z,73.65
2022-07-26T00:51:35.354Z,69.28
2022-07-26T00:54:04.819Z,73.15
2022-07-26T00:56:36.432Z,66.15
2022-07-26T00:59:05.126Z,67.00
2022-07-26T01:01:33.781Z,71.47
2022-07-26T01:04:02.298Z,77.88
2022-07-26T01:06:30.658Z,72.68
2022-07-26T01:08:59.032Z,60.97
2022-07-26T01:11:27.319Z,69.68
2022-07-26T01:13:55.585Z,73.22
2022-07-26T01:16:24.611Z,71.18
2022-07-26T01:18:53.286Z,76.10
2022-07-26T01:21:22.022Z,77.00
2022-07-26T01:23:50.257Z,67.20
2022-07-26T01:26:18.474Z,77.05
2022-07-26T01:28:47.347Z,73.75
2022-07-26T01:31:16.250Z,70.82
2022-07-26T01:33:44.551Z,67.00
2022-07-26T01:36:12.836Z,83.30
2022-07-26T01:38:42.462Z,73.47
2022-07-26T01:41:10.731Z,78.13
2022-07-26T01:43:39.023Z,79.30
2022-07-26T01:46:09.870Z,90.88
2022-07-26T01:48:38.524Z,74.50
2022-07-26T01:51:07.228Z,90.20
2022-07-26T01:53:35.517Z,86.75
2022-07-26T01:56:03.775Z,74.00
2022-07-26T01:58:36.291Z,72.03
2022-07-26T02:01:04.742Z,72.65
2022-07-26T02:03:32.980Z,72.85
2022-07-26T02:06:01.372Z,67.63
2022-07-26T02:08:29.737Z,74.28
2022-07-26T02:10:57.957Z,60.95
2022-07-26T02:13:26.320Z,69.05
2022-07-26T02:15:54.674Z,66.38
2022-07-26T02:18:22.933Z,65.30
2022-07-26T02:20:51.047Z,63.97
2022-07-26T02:23:19.581Z,69.65
2022-07-26T02:25:47.976Z,69.32
2022-07-26T02:28:16.997Z,66.05
2022-07-26T02:30:47.032Z,66.65
2022-07-26T02:33:15.939Z,70.82
2022-07-26T02:35:44.918Z,65.75
2022-07-26T02:38:16.573Z,60.88
2022-07-26T02:40:45.134Z,58.30
2022-07-26T02:43:13.369Z,55.70
2022-07-26T02:45:41.710Z,63.88
2022-07-26T02:48:25.451Z,53.67
2022-07-26T02:50:53.799Z,53.50
2022-07-26T02:53:21.941Z,62.38
2022-07-26T02:55:50.196Z,46.30
2022-07-26T02:58:18.631Z,53.58
2022-07-26T03:00:46.873Z,57.47
2022-07-26T03:03:15.263Z,57.58
2022-07-26T03:05:43.628Z,44.80
2022-07-26T03:08:11.878Z,52.10
2022-07-26T03:10:41.583Z,55.80
2022-07-26T03:13:09.722Z,51.05
2022-07-26T03:15:38.255Z,63.13
2022-07-26T03:18:06.485Z,51.97
2022-07-26T03:20:34.723Z,61.60
2022-07-26T03:23:03.036Z,56.60
2022-07-26T03:25:31.397Z,64.05
2022-07-26T03:27:59.701Z,67.85
2022-07-26T03:30:27.947Z,72.60
2022-07-26T03:32:56.298Z,80.75
2022-07-26T03:35:24.418Z,65.38
2022-07-26T03:37:53.380Z,76.32
2022-07-26T03:40:21.913Z,67.88
2022-07-26T03:42:50.260Z,68.70
2022-07-26T03:45:18.553Z,64.00
2022-07-26T03:47:46.783Z,60.40
2022-07-26T03:50:15.003Z,64.18
2022-07-26T03:52:43.245Z,56.38
2022-07-26T03:55:11.986Z,54.90
2022-07-26T03:57:40.207Z,65.15
2022-07-26T04:00:09.170Z,56.13
2022-07-26T04:02:37.463Z,50.72
2022-07-26T04:05:07.007Z,59.00
2022-07-26T04:07:42.886Z,55.75
2022-07-26T04:10:12.223Z,56.25
2022-07-26T04:12:40.449Z,55.30
2022-07-26T04:15:09.165Z,51.13
2022-07-26T04:17:41.693Z,54.63
2022-07-26T04:20:12.254Z,57.22
2022-07-26T04:22:41.271Z,56.17
2022-07-26T04:25:10.761Z,60.97
2022-07-26T04:27:39.357Z,60.95
2022-07-26T04:30:14.049Z,68.75
2022-07-26T04:32:43.525Z,65.38
2022-07-26T04:35:14.403Z,60.25
2022-07-26T04:37:43.459Z,76.78
2022-07-26T04:40:16.805Z,63.97
2022-07-26T04:42:45.129Z,64.07
2022-07-26T04:45:13.972Z,67.78
2022-07-26T04:47:47.161Z,68.13
2022-07-26T04:50:19.199Z,73.65
2022-07-26T04:52:48.949Z,62.45
2022-07-26T04:55:17.804Z,72.50
2022-07-26T04:57:47.564Z,71.88
2022-07-26T05:00:23.453Z,67.63
2022-07-26T05:02:54.616Z,63.65
2022-07-26T05:05:24.149Z,63.92
2022-07-26T05:07:55.500Z,58.85
2022-07-26T05:10:28.988Z,63.60
2022-07-26T05:12:57.307Z,51.20
2022-07-26T05:15:25.920Z,43.13
2022-07-26T05:18:07.055Z,57.40
2022-07-26T05:20:36.149Z,54.78
2022-07-26T05:23:04.495Z,45.42
2022-07-26T05:25:32.751Z,42.72
2022-07-26T05:28:01.004Z,45.20
2022-07-26T05:30:29.795Z,44.47
2022-07-26T05:32:58.025Z,48.75
2022-07-26T05:35:26.432Z,41.47
2022-07-26T05:37:55.015Z,49.50
2022-07-26T05:40:23.478Z,39.10
2022-07-26T05:42:51.753Z,44.33
2022-07-26T05:45:20.052Z,43.95
2022-07-26T05:47:51.882Z,41.17
2022-07-26T05:50:20.885Z,45.25
2022-07-26T05:52:49.327Z,47.95
2022-07-26T05:55:17.565Z,45.63
2022-07-26T05:57:45.935Z,40.42
2022-07-26T06:00:15.639Z,40.35
2022-07-26T06:02:44.147Z,43.40
2022-07-26T06:05:12.356Z,45.97
2022-07-26T06:07:40.648Z,41.97
2022-07-26T06:10:09.524Z,43.40
2022-07-26T06:12:37.665Z,46.63
2022-07-26T06:15:15.267Z,46.83
2022-07-26T06:17:44.435Z,49.78
2022-07-26T06:20:13.027Z,44.80
2022-07-26T06:22:41.399Z,51.75
2022-07-26T06:25:09.909Z,50.38
2022-07-26T06:27:38.165Z,44.20
2022-07-26T06:30:08.122Z,38.45
2022-07-26T06:32:36.425Z,49.08
2022-07-26T06:35:04.941Z,43.03
2022-07-26T06:37:36.182Z,47.78
2022-07-26T06:40:07.402Z,42.28
2022-07-26T06:42:36.377Z,52.42
2022-07-26T06:45:05.447Z,48.40
2022-07-26T06:47:33.914Z,51.22
2022-07-26T06:50:03.351Z,43.80
2022-07-26T06:52:31.690Z,47.25
2022-07-26T06:55:00.728Z,52.08
2022-07-26T06:57:29.014Z,48.05
2022-07-26T06:59:57.465Z,43.60
2022-07-26T07:02:25.696Z,50.75
2022-07-26T07:04:53.937Z,43.92
2022-07-26T07:07:22.405Z,43.45
2022-07-26T07:09:51.357Z,40.50
2022-07-26T07:12:20.039Z,40.97
2022-07-26T07:14:48.541Z,45.90
2022-07-26T07:17:20.483Z,54.72
2022-07-26T07:19:49.186Z,49.35
2022-07-26T07:22:17.487Z,44.30
2022-07-26T07:24:46.653Z,39.58
2022-07-26T07:27:16.117Z,42.55
2022-07-26T07:29:44.807Z,42.78
2022-07-26T07:32:17.999Z,46.03
2022-07-26T07:34:50.616Z,50.25
2022-07-26T07:37:20.410Z,51.60
2022-07-26T07:39:50.599Z,64.38
2022-07-26T07:42:19.912Z,45.75
2022-07-26T07:44:48.520Z,52.90
2022-07-26T07:47:16.904Z,54.55
2022-07-26T07:49:45.229Z,51.80
2022-07-26T07:52:13.450Z,42.60
2022-07-26T07:54:42.205Z,48.45
2022-07-26T07:57:10.734Z,42.40
2022-07-26T07:59:39.525Z,39.30
2022-07-26T08:02:08.247Z,41.95
2022-07-26T08:04:36.696Z,42.08
2022-07-26T08:07:05.174Z,50.45
2022-07-26T08:09:34.053Z,45.67
2022-07-26T08:12:02.949Z,55.50
2022-07-26T08:14:31.542Z,49.50
2022-07-26T08:16:59.878Z,47.15
2022-07-26T08:19:42.034Z,49.85
2022-07-26T08:22:11.504Z,48.50
2022-07-26T08:24:39.979Z,50.30
2022-07-26T08:27:08.472Z,53.67
2022-07-26T08:29:36.805Z,57.30
2022-07-26T08:32:05.553Z,57.58
2022-07-26T08:34:34.046Z,62.00
2022-07-26T08:37:18.357Z,56.72
2022-07-26T08:39:48.610Z,53.90
2022-07-26T08:42:23.325Z,54.28
2022-07-26T08:44:52.230Z,52.35
2022-07-26T08:47:37.722Z,67.53
2022-07-26T08:50:10.597Z,72.57
2022-07-26T08:52:42.852Z,54.15
2022-07-26T08:55:16.235Z,53.65
2022-07-26T08:57:44.808Z,55.03
2022-07-26T09:00:23.848Z,59.25
2022-07-26T09:02:54.186Z,59.63
2022-07-26T09:05:29.457Z,67.95
2022-07-26T09:07:58.955Z,59.13
2022-07-26T09:10:28.467Z,62.60
2022-07-26T09:12:59.928Z,50.05
2022-07-26T09:15:29.302Z,59.38
2022-07-26T09:17:58.544Z,61.28
2022-07-26T09:20:29.928Z,57.75
2022-07-26T09:23:11.288Z,54.57
2022-07-26T09:25:41.826Z,62.55
2022-07-26T09:28:27.624Z,62.60
2022-07-26T09:31:06.267Z,58.60
2022-07-26T09:33:49.162Z,56.85
2022-07-26T09:36:18.729Z,63.08
2022-07-26T09:38:50.156Z,61.45
2022-07-26T09:41:38.487Z,57.33
2022-07-26T09:44:20.409Z,53.42
2022-07-26T09:46:59.706Z,65.78
2022-07-26T09:49:40.188Z,49.75
2022-07-26T09:52:21.376Z,61.77
2022-07-26T09:54:50.399Z,53.30
2022-07-26T09:57:22.434Z,55.83
2022-07-26T09:59:50.732Z,47.17
2022-07-26T10:02:19.053Z,53.08
2022-07-26T10:04:47.352Z,43.58
2022-07-26T10:07:16.358Z,46.78
2022-07-26T10:10:13.494Z,46.80
2022-07-26T10:12:42.345Z,47.80
2022-07-26T10:15:50.628Z,48.08
2022-07-26T10:18:38.070Z,54.53
2022-07-26T10:21:18.694Z,50.35
2022-07-26T10:24:03.603Z,42.45
2022-07-26T10:26:34.651Z,37.90
2022-07-26T10:29:18.607Z,48.80
2022-07-26T10:32:10.995Z,49.55
2022-07-26T10:37:11.049Z,46.50
2022-07-26T10:39:40.248Z,55.95
2022-07-26T10:42:10.652Z,45.17
2022-07-26T10:44:41.616Z,46.08
2022-07-26T10:47:09.942Z,52.47
2022-07-26T10:49:41.027Z,48.58
2022-07-26T10:52:20.574Z,42.53
2022-07-26T10:54:57.918Z,44.45
2022-07-26T10:57:38.496Z,30.77
2022-07-26T11:00:18.897Z,59.53
2022-07-26T11:02:55.672Z,75.95
2022-07-26T11:05:25.903Z,122.30
2022-07-26T11:08:01.170Z,54.40
2022-07-26T11:10:48.298Z,60.97
2022-07-26T11:13:19.130Z,61.97
2022-07-26T11:15:51.631Z,58.92
2022-07-26T11:18:25.830Z,80.38
2022-07-26T11:20:57.389Z,59.25
2022-07-26T11:23:36.167Z,70.80
2022-07-26T11:26:04.524Z,93.72
2022-07-26T11:28:57.497Z,79.80
2022-07-26T11:31:51.341Z,31.55
2022-07-26T11:34:31.294Z,35.73
2022-07-26T11:37:01.608Z,26.42
2022-07-26T11:39:33.341Z,29.50
2022-07-26T11:42:12.702Z,24.83
2022-07-26T11:44:45.454Z,20.35
2022-07-26T11:47:15.069Z,48.47
2022-07-26T11:50:00.072Z,37.30
2022-07-26T11:52:32.691Z,29.90
2022-07-26T11:55:01.510Z,32.08
2022-07-26T11:57:32.001Z,32.00
2022-07-26T12:00:02.082Z,22.95
2022-07-26T12:02:39.566Z,29.17
2022-07-26T12:05:21.951Z,21.52
2022-07-26T12:07:57.488Z,22.65
2022-07-26T12:10:26.872Z,19.17
2022-07-26T12:13:17.448Z,51.28
2022-07-26T12:15:51.664Z,71.60
2022-07-26T12:18:31.461Z,66.15
2022-07-26T12:21:08.909Z,34.72
2022-07-26T12:23:48.287Z,116.95
2022-07-26T12:26:20.845Z,32.05
2022-07-26T12:28:49.254Z,33.88
2022-07-26T12:31:27.890Z,22.30
2022-07-26T12:33:56.998Z,34.80
2022-07-26T12:36:27.627Z,30.35
2022-07-26T12:38:59.688Z,38.67
2022-07-26T12:41:46.273Z,46.38
2022-07-26T12:44:15.029Z,35.35
2022-07-26T12:46:44.344Z,27.55
2022-07-26T12:49:13.127Z,34.03
2022-07-26T12:51:41.475Z,37.17
2022-07-26T12:54:10.074Z,28.55
2022-07-26T12:56:38.476Z,23.77
2022-07-26T12:59:07.695Z,31.80
2022-07-26T13:01:36.419Z,45.67
2022-07-26T13:04:04.923Z,52.08
2022-07-26T13:06:33.195Z,49.30
2022-07-26T13:09:01.355Z,31.25
2022-07-26T13:11:29.857Z,32.97
2022-07-26T13:13:58.183Z,17.60
2022-07-26T13:16:26.567Z,27.63
2022-07-26T13:18:54.820Z,18.98
2022-07-26T13:21:23.365Z,28.50
2022-07-26T13:23:51.629Z,77.82
2022-07-26T13:26:21.803Z,26.48
2022-07-26T13:28:50.968Z,21.48
2022-07-26T13:31:19.353Z,23.83
2022-07-26T13:33:47.720Z,41.50
2022-07-26T13:36:16.156Z,18.52
2022-07-26T13:38:44.335Z,36.17
2022-07-26T13:41:12.801Z,41.45
2022-07-26T13:43:41.056Z,30.83
2022-07-26T13:46:09.291Z,46.95
2022-07-26T13:48:39.483Z,27.08
2022-07-26T13:51:16.509Z,57.42
2022-07-26T13:53:52.282Z,46.65
2022-07-26T13:56:23.903Z,26.13
2022-07-26T13:58:52.117Z,40.55
2022-07-26T14:01:20.556Z,26.80
2022-07-26T14:04:10.168Z,25.98
2022-07-26T14:06:38.887Z,25.63
2022-07-26T14:09:10.772Z,31.30
2022-07-26T14:11:39.996Z,34.83
2022-07-26T14:14:08.989Z,40.85
2022-07-26T14:16:37.860Z,32.38
2022-07-26T14:19:06.381Z,16.45
2022-07-26T14:21:43.641Z,18.23
2022-07-26T14:24:18.984Z,26.25
2022-07-26T14:29:17.314Z,19.73
2022-07-26T14:31:45.530Z,51.60
2022-07-26T14:34:14.422Z,31.85
2022-07-26T14:36:42.925Z,13.95
2022-07-26T14:39:11.283Z,21.40
2022-07-26T14:41:39.484Z,23.63
2022-07-26T14:44:07.960Z,56.85
2022-07-26T14:46:36.996Z,78.45
2022-07-26T14:49:05.411Z,54.38
2022-07-26T14:51:33.751Z,44.92
2022-07-26T14:54:01.906Z,42.13
2022-07-26T14:56:30.240Z,34.13
2022-07-26T14:58:58.373Z,30.63
2022-07-26T15:01:26.851Z,11.57
2022-07-26T15:03:55.191Z,29.20
2022-07-26T15:06:24.091Z,22.25
2022-07-26T15:08:52.609Z,20.58
2022-07-26T15:11:20.764Z,25.55
2022-07-26T15:13:49.191Z,14.73
2022-07-26T15:16:17.615Z,23.42
2022-07-26T15:18:45.959Z,23.02
2022-07-26T15:21:15.931Z,58.30
2022-07-26T15:23:44.552Z,47.47
2022-07-26T15:26:12.743Z,20.58
2022-07-26T15:28:40.939Z,14.82
2022-07-26T15:31:11.657Z,59.03
2022-07-26T15:33:39.845Z,62.17
2022-07-26T15:36:08.274Z,110.00
2022-07-26T15:38:36.484Z,76.50
2022-07-26T15:41:04.865Z,137.00
2022-07-26T15:43:46.767Z,60.08
2022-07-26T15:46:17.153Z,28.75
2022-07-26T15:48:46.619Z,89.55
2022-07-26T15:51:15.746Z,108.00
2022-07-26T15:53:46.466Z,74.55
2022-07-26T15:56:15.772Z,37.45
2022-07-26T15:58:44.962Z,20.48
2022-07-26T16:01:14.326Z,27.52
2022-07-26T16:03:42.674Z,29.63
2022-07-26T16:06:10.955Z,26.02
2022-07-26T16:08:52.738Z,17.05
2022-07-26T16:11:31.765Z,27.10
2022-07-26T16:14:01.472Z,26.95
2022-07-26T16:16:31.092Z,27.52
2022-07-26T16:18:59.324Z,69.32
2022-07-26T16:21:27.561Z,50.20
2022-07-26T16:23:55.910Z,29.98
2022-07-26T16:26:24.118Z,79.72
2022-07-26T16:28:52.250Z,44.05
2022-07-26T16:31:20.865Z,29.02
2022-07-26T16:33:48.948Z,23.67
2022-07-26T16:36:17.400Z,26.00
2022-07-26T16:38:45.590Z,64.40
2022-07-26T16:41:13.920Z,47.60
2022-07-26T16:43:42.276Z,22.45
2022-07-26T16:46:10.547Z,29.58
2022-07-26T16:48:39.056Z,46.17
2022-07-26T16:51:07.326Z,68.90
2022-07-26T16:53:35.578Z,23.17
2022-07-26T16:56:03.964Z,26.60
2022-07-26T16:58:32.199Z,28.02
2022-07-26T17:01:00.586Z,57.55
2022-07-26T17:03:29.230Z,28.67
2022-07-26T17:05:57.428Z,23.58
2022-07-26T17:08:25.732Z,31.10
2022-07-26T17:10:53.961Z,33.42
2022-07-26T17:13:22.254Z,62.42
2022-07-26T17:15:50.683Z,30.98
2022-07-26T17:18:19.005Z,35.63
2022-07-26T17:20:47.256Z,54.53
2022-07-26T17:23:15.564Z,50.40
2022-07-26T17:25:43.838Z,52.50
2022-07-26T17:28:12.096Z,73.25
2022-07-26T17:30:40.775Z,20.65
2022-07-26T17:33:08.919Z,59.42
2022-07-26T17:35:37.449Z,25.80
2022-07-26T17:38:05.887Z,34.63
2022-07-26T17:40:35.999Z,33.55
2022-07-26T17:43:06.899Z,66.55
2022-07-26T17:45:35.134Z,47.55
2022-07-26T17:48:06.394Z,50.05
2022-07-26T17:50:36.919Z,37.10
2022-07-26T17:53:06.477Z,29.98
2022-07-26T17:55:35.177Z,27.13
2022-07-26T17:58:03.494Z,21.00
2022-07-26T18:00:31.865Z,34.63
2022-07-26T18:02:59.961Z,27.50
2022-07-26T18:05:34.216Z,33.25
2022-07-26T18:08:04.774Z,28.65
2022-07-26T18:10:33.536Z,32.90
2022-07-26T18:13:01.786Z,27.48
2022-07-26T18:15:30.050Z,50.20
2022-07-26T18:17:58.437Z,89.07
2022-07-26T18:20:26.686Z,23.58
2022-07-26T18:22:54.887Z,23.80
2022-07-26T18:25:23.245Z,33.63
2022-07-26T18:27:51.357Z,28.23
2022-07-26T18:30:19.600Z,22.88
2022-07-26T18:32:47.980Z,34.85
2022-07-26T18:35:16.329Z,37.00
2022-07-26T18:37:44.553Z,57.80
2022-07-26T18:40:13.077Z,29.98
2022-07-26T18:42:41.378Z,32.38
2022-07-26T18:45:09.830Z,54.92
2022-07-26T18:47:38.162Z,48.28
2022-07-26T18:50:07.298Z,39.83
2022-07-26T18:52:36.494Z,34.50
2022-07-26T18:55:09.596Z,37.15
2022-07-26T18:57:39.063Z,46.08
2022-07-26T19:00:13.902Z,30.33
2022-07-26T19:02:43.333Z,67.10
2022-07-26T19:05:11.973Z,69.68
2022-07-26T19:07:40.433Z,38.60
2022-07-26T19:10:10.771Z,34.53
2022-07-26T19:12:40.139Z,39.60
2022-07-26T19:15:09.241Z,29.90
2022-07-26T19:17:37.771Z,32.15
2022-07-26T19:20:07.519Z,36.38
2022-07-26T19:22:36.269Z,51.90
2022-07-26T19:25:07.056Z,41.63
2022-07-26T19:27:35.450Z,151.80
2022-07-26T19:30:04.790Z,57.17
2022-07-26T19:32:33.739Z,96.20
2022-07-26T19:35:02.634Z,56.00
2022-07-26T19:37:30.804Z,61.17
2022-07-26T19:39:59.287Z,87.40
2022-07-26T19:42:30.251Z,30.02
2022-07-26T19:44:59.061Z,54.30
2022-07-26T19:47:27.253Z,41.95
2022-07-26T19:49:55.650Z,33.63
2022-07-26T19:52:24.179Z,73.28
2022-07-26T19:54:52.441Z,77.65
2022-07-26T19:57:20.940Z,39.65
2022-07-26T19:59:49.521Z,71.78
2022-07-26T20:02:18.214Z,95.30
2022-07-26T20:04:46.607Z,56.67
2022-07-26T20:07:14.984Z,140.77
2022-07-26T20:09:43.201Z,82.55
2022-07-26T20:12:11.528Z,120.57
2022-07-26T20:14:39.773Z,92.82
2022-07-26T20:17:11.939Z,72.03
2022-07-26T20:19:41.871Z,106.45
2022-07-26T20:22:10.860Z,82.32
2022-07-26T20:24:39.549Z,99.10
2022-07-26T20:27:08.256Z,90.13
2022-07-26T20:29:36.582Z,124.28
2022-07-26T20:32:05.108Z,99.07
2022-07-26T20:34:33.356Z,83.43
2022-07-26T20:37:01.735Z,61.38
2022-07-26T20:39:29.859Z,39.47
2022-07-26T20:41:58.294Z,87.32
2022-07-26T20:44:29.436Z,39.50
2022-07-26T20:46:57.797Z,48.42
2022-07-26T20:49:26.201Z,54.47
2022-07-26T20:51:54.596Z,100.22
2022-07-26T20:54:22.915Z,75.65
2022-07-26T20:56:51.198Z,109.80
2022-07-26T20:59:19.608Z,86.70
2022-07-26T21:01:47.886Z,47.03
2022-07-26T21:04:16.292Z,86.97
2022-07-26T21:06:44.576Z,79.20
2022-07-26T21:09:13.182Z,121.18
2022-07-26T21:11:41.740Z,185.00
2022-07-26T21:14:09.983Z,283.02
2022-07-26T21:16:38.561Z,179.07
2022-07-26T21:19:06.908Z,500.40
2022-07-26T21:21:35.278Z,238.60
2022-07-26T21:24:03.624Z,247.85
2022-07-26T21:26:32.016Z,287.55
2022-07-26T21:29:00.275Z,169.10
2022-07-26T21:31:28.499Z,234.07
2022-07-26T21:33:56.788Z,288.65
2022-07-26T21:36:25.108Z,118.07
2022-07-26T21:38:53.350Z,122.45
2022-07-26T21:41:22.170Z,125.30
2022-07-26T21:43:50.396Z,134.40
2022-07-26T21:46:18.646Z,102.43
2022-07-26T21:48:47.092Z,101.15
2022-07-26T21:51:15.419Z,131.27
2022-07-26T21:53:43.872Z,97.05
2022-07-26T21:56:12.334Z,163.55
2022-07-26T21:58:40.528Z,127.40
2022-07-26T22:01:09.617Z,155.18
2022-07-26T22:03:38.658Z,186.88
2022-07-26T22:06:07.869Z,207.75
2022-07-26T22:08:36.789Z,239.20
2022-07-26T22:11:05.869Z,196.48
2022-07-26T22:13:34.513Z,151.38
2022-07-26T22:16:02.821Z,103.88
2022-07-26T22:18:31.149Z,133.18
2022-07-26T22:20:59.451Z,99.20
2022-07-26T22:23:27.933Z,119.88
2022-07-26T22:26:00.297Z,74.18
2022-07-26T22:28:29.999Z,52.75
2022-07-26T22:30:58.612Z,72.90
2022-07-26T22:33:27.096Z,79.35
2022-07-26T22:35:55.475Z,144.65
2022-07-26T22:38:23.710Z,162.18
2022-07-26T22:40:52.498Z,148.98
2022-07-26T22:43:20.952Z,186.73
2022-07-26T22:45:52.253Z,190.63
2022-07-26T22:48:23.577Z,175.65
2022-07-26T22:50:52.144Z,171.95
2022-07-26T22:53:20.645Z,128.45
2022-07-26T22:55:49.082Z,146.77
2022-07-26T22:58:17.462Z,81.45
2022-07-26T23:00:46.099Z,68.70
2022-07-26T23:03:19.754Z,84.32
2022-07-26T23:05:50.439Z,90.82
2022-07-26T23:11:09.301Z,77.45
2022-07-26T23:13:37.813Z,66.13
2022-07-26T23:16:06.833Z,92.13
2022-07-26T23:18:35.605Z,58.38
2022-07-26T23:21:07.131Z,49.40
2022-07-26T23:23:39.483Z,95.55
2022-07-26T23:26:07.918Z,97.00
2022-07-26T23:28:38.781Z,98.63
2022-07-26T23:31:11.715Z,53.67
2022-07-26T23:33:54.697Z,67.60
2022-07-26T23:36:28.142Z,68.55
2022-07-26T23:38:58.089Z,57.30
2022-07-26T23:41:27.062Z,118.20
2022-07-26T23:43:55.626Z,75.07
2022-07-26T23:46:25.740Z,52.92
2022-07-26T23:48:55.443Z,163.60
2022-07-26T23:51:33.051Z,69.20
2022-07-26T23:54:01.364Z,52.40
2022-07-26T23:56:29.798Z,80.00
2022-07-26T23:58:58.115Z,44.63
